Latest Coastal Weather Observations for Maroochydore

IDQ60701

Issued at 11:42 am EST Sunday 22 January 2017 (issued every 10 minutes, with the page automatically refreshed every 10 minutes)

About coastal observations | Map of coastal stations | Coastal observations for QLD | Marine services | Other Formats
Station Details ID: 040861 Name: SUNSHINE COAST AIRPORT Lat: -26.60 Lon: 153.09 Height: 3.3 m
Data from the previous 72 hours. | See also: Recent months at Maroochydore
Date/Time
EST
Temp
°C
Wind Pressure Rain since
9am
mm
Weather Cloud Vis
km
Sea
Height
m
Swell
Dir  Spd
kts
Gust
kts
hPa Trend Height
m
Period
s
Dir
22/11:30am 26.3 SE 13 19 1015.7 - 0.0 - Partly cloudy 10 - - - -
22/11:00am 27.3 SE 13 16 1015.8 - 0.0 - Cloudy 10 - - - -
22/10:30am 27.2 SE 15 20 1015.8 - 0.0 - Partly cloudy 10 - - - -
22/10:00am 26.7 SE 15 20 1015.7 - 0.0 - Partly cloudy 10 - - - -
22/09:30am 28.3 SE 14 19 1015.6 - 0.0 - Partly cloudy 10 - - - -
22/09:00am 26.4 SE 15 19 1015.6 - 5.2 - Cloudy 10 - - - -
22/08:30am 25.9 SE 14 19 1015.4 - 5.2 - Partly cloudy 10 - - - -
22/08:00am 25.4 SE 14 19 1015.2 - 5.2 - Partly cloudy 10 - - - -
22/07:30am 24.5 SSE 12 17 1015.1 - 5.2 - Partly cloudy 10 - - - -
22/07:00am 25.4 SE 12 16 1014.9 - 5.0 - Partly cloudy 10 - - - -
22/06:30am 25.0 SE 13 20 1014.6 - 5.0 - Partly cloudy 10 - - - -
22/06:00am 24.9 SE 14 19 1014.2 - 5.0 - Cloudy 10 - - - -
22/05:30am 23.8 SSE 15 23 1014.0 - 5.0 - Partly cloudy 10 - - - -
22/05:00am 23.5 SE 13 21 1013.6 - 5.0 - Partly cloudy 10 - - - -
22/04:30am 24.8 SE 14 22 1013.0 - 5.0 - Partly cloudy 10 - - - -
22/04:00am 25.0 SE 15 19 1012.5 - 5.0 - Partly cloudy 10 - - - -
22/03:30am 24.8 SE 14 22 1012.1 - 5.0 - Partly cloudy 10 - - - -
22/03:00am 24.9 SE 15 20 1011.9 - 5.0 - Cloudy 10 - - - -
22/02:30am 25.0 SE 14 19 1011.9 - 5.0 - Partly cloudy 10 - - - -
22/02:00am 25.0 SE 13 18 1012.1 - 5.0 - Partly cloudy 10 - - - -
22/01:30am 24.9 SE 14 19 1012.3 - 5.0 - Partly cloudy 10 - - - -
22/01:00am 25.1 SE 15 20 1012.3 - 5.0 - Partly cloudy 10 - - - -
22/12:30am 24.9 SE 15 20 1012.4 - 5.0 - Partly cloudy 10 - - - -
22/12:00am 25.0 SE 14 19 1012.7 - 5.0 - Cloudy 10 - - - -
 
Date/Time
EST
Temp
°C
Wind Pressure Rain since
9am
mm
Weather Cloud Vis
km
Sea
Height
m
Swell
Dir  Spd
kts
Gust
kts
hPa Trend Height
m
Period
s
Dir
21/11:30pm 24.9 SE 13 18 1012.9 - 5.0 - Partly cloudy 10 - - - -
21/11:00pm 24.3 ESE 15 19 1012.9 - 5.0 - Cloudy 10 - - - -
21/10:30pm 24.1 ESE 13 21 1013.1 - 4.8 - Partly cloudy 10 - - - -
21/10:21pm 23.8 SE 14 19 1013.2 - 4.8 - Partly cloudy 10 - - - -
21/10:19pm 23.7 SE 14 19 1013.2 - 4.8 - Partly cloudy 10 - - - -
21/10:00pm 23.8 SE 12 16 1013.3 - 4.8 - Partly cloudy 5 - - - -
21/09:30pm 23.5 ESE 13 17 1013.0 - 4.0 - Partly cloudy 5 - - - -
21/09:00pm 23.7 SE 14 19 1012.5 - 3.8 - Cloudy 4 - - - -
21/08:42pm 23.9 SE 14 21 1012.4 - 3.6 - Partly cloudy 5 - - - -
21/08:37pm 24.2 SE 13 17 1012.4 - 3.4 - Partly cloudy 9 - - - -
21/08:30pm 24.1 SE 13 19 1012.3 - 3.4 - Partly cloudy 8 - - - -
21/08:28pm 24.2 SE 14 19 1012.2 - 3.4 - Partly cloudy 7 - - - -
21/08:11pm 24.2 SE 14 19 1012.0 - 3.2 - Partly cloudy 6 - - - -
21/08:00pm 24.3 SE 13 19 1012.0 - 3.2 - Partly cloudy 8 - - - -
21/07:30pm 24.3 ESE 15 22 1011.5 - 3.2 - Partly cloudy 10 - - - -
21/07:17pm 24.2 SE 13 18 1011.1 - 3.0 - Partly cloudy 10 - - - -
21/07:05pm 24.1 SE 15 19 1010.8 - 3.0 - Partly cloudy 10 - - - -
21/07:03pm 24.1 SE 15 22 1010.8 - 3.0 - Partly cloudy 9 - - - -
21/07:00pm 24.0 SE 15 23 1010.8 - 3.0 - Partly cloudy 8 - - - -
21/06:30pm 24.1 SE 15 22 1010.3 - 1.8 - Partly cloudy 4 - - - -
21/06:00pm 24.4 SE 16 23 1010.0 - 0.4 - Cloudy 5 - - - -
21/05:59pm 24.4 SE 16 23 1010.0 - 0.4 - Partly cloudy 6 - - - -
21/05:54pm 24.7 SE 17 23 1009.8 - 0.4 - Partly cloudy 6 - - - -
21/05:30pm 24.7 SE 17 22 1009.2 - 0.4 - Partly cloudy 10 - - - -
21/05:26pm 24.7 SE 17 22 1009.0 - 0.4 - Partly cloudy 10 - - - -
21/05:10pm 24.8 SE 17 24 1008.4 - 0.2 - Partly cloudy 6 - - - -
21/05:00pm 25.3 SE 15 21 1008.6 - 0.0 - Partly cloudy 10 - - - -
21/04:43pm 25.2 SSE 15 20 1008.3 - 0.0 - Partly cloudy 10 - - - -
21/04:30pm 25.2 SSE 16 24 1008.1 - 0.0 - Partly cloudy 10 - - - -
21/04:00pm 25.8 SE 15 25 1007.6 - 0.0 - Partly cloudy 9 - - - -
21/03:58pm 25.8 SE 15 25 1007.6 - 0.0 - Partly cloudy 8 - - - -
21/03:30pm 26.4 SE 15 23 1007.1 - 0.0 - Partly cloudy 10 - - - -
21/03:00pm 26.9 SE 15 20 1007.2 - 0.0 - Cloudy 10 - - - -
21/02:33pm 28.8 ESE 16 22 1007.0 - 0.0 - Partly cloudy 10 - - - -
21/02:30pm 29.1 ESE 16 22 1006.9 - 0.0 - Partly cloudy 10 - - - -
21/02:00pm 30.1 ESE 11 13 1006.3 - 0.0 - Partly cloudy 10 - - - -
21/01:30pm 32.6 NE 12 15 1005.8 - 0.0 - - 10 - - - -
21/01:00pm 31.0 NE 11 13 1005.9 - 0.0 - - 10 - - - -
21/12:30pm 32.4 NE 12 15 1006.0 - 0.0 - - 10 - - - -
21/12:00pm 31.4 ENE 9 11 1006.0 - 0.0 - - 10 - - - -
21/11:30am 32.4 E 8 9 1006.2 - 0.0 - - 10 - - - -
21/11:00am 31.4 ENE 8 11 1006.3 - 0.0 - Partly cloudy 10 - - - -
21/10:30am 33.4 ENE 9 13 1006.3 - 0.0 - - 10 - - - -
21/10:00am 34.0 WNW 7 11 1006.3 - 0.0 - - 10 - - - -
21/09:30am 35.0 WNW 8 13 1006.5 - 0.0 - - 10 - - - -
21/09:00am 33.3 WNW 9 12 1006.6 - 0.0 - - 10 - - - -
21/08:30am 30.7 NNW 9 11 1006.5 - 0.0 - - 10 - - - -
21/08:00am 29.4 NNW 6 8 1006.4 - 0.0 - - 10 - - - -
21/07:30am 28.2 NNW 6 9 1006.6 - 0.0 - - 10 - - - -
21/07:00am 28.0 N 2 5 1006.4 - 0.0 - - 10 - - - -
21/06:30am 26.8 NNW 4 5 1006.1 - 0.0 - Partly cloudy 10 - - - -
21/06:00am 26.2 NNW 5 7 1006.0 - 0.0 - - 10 - - - -
21/05:30am 26.4 WNW 4 5 1005.7 - 0.0 - Partly cloudy 10 - - - -
21/05:00am 26.7 NW 7 11 1005.1 - 0.0 - Partly cloudy 10 - - - -
21/04:30am 26.8 NW 7 11 1004.4 - 0.0 - Partly cloudy 10 - - - -
21/04:00am 26.9 NW 7 11 1004.1 - 0.0 - Partly cloudy 10 - - - -
21/03:30am 26.9 NW 9 13 1003.8 - 0.0 - Partly cloudy 10 - - - -
21/03:06am 26.8 NW 8 13 1003.6 - 0.0 - Partly cloudy 10 - - - -
21/03:00am 26.7 NW 7 13 1003.6 - 0.0 - - 10 - - - -
21/02:30am 26.7 NNW 9 14 1003.8 - 0.0 - - 5 - - - -
21/02:00am 26.9 NNW 7 11 1004.0 - 0.0 - - 5 - - - -
21/01:30am 27.0 NNW 7 10 1004.1 - 0.0 - - 5 - - - -
21/01:22am 27.3 NNW 8 11 1004.1 - 0.0 - - 6 - - - -
21/01:00am 26.6 N 6 10 1004.2 - 0.0 - - 10 - - - -
21/12:30am 26.3 N 4 6 1004.4 - 0.0 - - 10 - - - -
21/12:00am 26.7 NNW 5 7 1004.6 - 0.0 - - 10 - - - -
 
Date/Time
EST
Temp
°C
Wind Pressure Rain since
9am
mm
Weather Cloud Vis
km
Sea
Height
m
Swell
Dir  Spd
kts
Gust
kts
hPa Trend Height
m
Period
s
Dir
20/11:30pm 26.9 N 4 5 1005.0 - 0.0 - - 10 - - - -
20/11:16pm 27.4 WNW 4 6 1005.2 - 0.0 - - 10 - - - -
20/11:00pm 27.5 W 5 6 1005.1 - 0.0 - - 6 - - - -
20/10:30pm 28.1 NNW 9 13 1004.8 - 0.0 - - 5 - - - -
20/10:20pm 28.0 NNW 9 11 1004.8 - 0.0 - Partly cloudy 6 - - - -
20/10:00pm 28.1 NNW 10 14 1004.9 - 0.0 - Partly cloudy 10 - - - -
20/09:30pm 28.3 NNW 11 16 1004.6 - 0.0 - Partly cloudy 10 - - - -
20/09:00pm 28.5 NNW 12 17 1004.1 - 0.0 - - 10 - - - -
20/08:30pm 28.8 N 10 14 1004.0 - 0.0 - - 10 - - - -
20/08:00pm 28.9 N 11 15 1003.8 - 0.0 - - 10 - - - -
20/07:30pm 29.3 N 12 17 1003.8 - 0.0 - - 10 - - - -
20/07:00pm 27.8 N 6 8 1003.7 - 0.0 - - 10 - - - -
20/06:30pm 27.9 N 11 14 1003.6 - 0.0 - - 10 - - - -
20/06:00pm 28.2 N 15 20 1003.3 - 0.0 - - 10 - - - -
20/05:30pm 28.4 N 15 21 1003.4 - 0.0 - - 10 - - - -
20/05:00pm 28.7 N 15 21 1003.2 - 0.0 - - 10 - - - -
20/04:30pm 29.0 NNE 17 22 1003.2 - 0.0 - - 10 - - - -
20/04:00pm 29.3 NNE 17 22 1003.1 - 0.0 - - 10 - - - -
20/03:30pm 29.7 N 19 24 1003.4 - 0.0 - Partly cloudy 10 - - - -
20/03:00pm 30.0 NNE 17 25 1003.8 - 0.0 - Mostly clear 10 - - - -
20/02:30pm 30.7 NNE 17 23 1004.3 - 0.0 - - 10 - - - -
20/02:00pm 30.4 NNE 16 21 1004.9 - 0.0 - - 10 - - - -
20/01:30pm 30.7 NNE 15 19 1005.6 - 0.0 - - 10 - - - -
20/01:00pm 30.7 NNE 14 17 1006.2 - 0.0 - Partly cloudy 10 - - - -
20/12:30pm 30.4 NNE 12 16 1006.8 - 0.0 - Partly cloudy 10 - - - -
20/12:00pm 29.4 NE 11 14 1007.2 - 0.0 - Mostly cloudy 10 - - - -
20/11:30am 29.4 ENE 10 12 1007.5 - 0.0 - Partly cloudy 10 - - - -
20/11:00am 28.9 ENE 9 12 1007.8 - 0.0 - Partly cloudy 10 - - - -
20/10:30am 28.1 E 9 11 1008.2 - 0.0 - Partly cloudy 10 - - - -
20/10:00am 27.7 E 8 10 1008.7 - 0.0 - Partly cloudy 10 - - - -
20/09:30am 28.7 ESE 8 10 1008.8 - 0.0 - - 10 - - - -
20/09:00am 28.6 E 6 8 1009.0 - 0.0 - Partly cloudy 10 - - - -
20/08:30am 27.9 ESE 5 7 1009.1 - 0.0 - Partly cloudy 10 - - - -
20/08:00am 26.4 SE 6 8 1009.3 - 0.0 - Partly cloudy 10 - - - -
20/07:30am 24.6 S 6 7 1009.7 - 0.0 - Cloudy 10 - - - -
20/07:05am 23.7 CALM 0 0 1010.0 - 0.0 - Cloudy 10 - - - -
20/07:00am 23.8 CALM 0 0 1010.0 - 0.0 - Cloudy 8 - - - -
20/06:48am 23.8 CALM 0 0 1010.0 - 0.0 - Cloudy 6 - - - -
20/06:40am 23.8 NNW 1 3 1009.9 - 0.0 - Cloudy 7 - - - -
20/06:30am 23.7 NNW 3 4 1009.9 - 0.0 - Partly cloudy 6 - - - -
20/06:29am 23.7 NNW 3 4 1009.9 - 0.0 - Partly cloudy 6 - - - -
20/06:23am 23.7 NNW 4 5 1009.8 - 0.0 - Partly cloudy 6 - - - -
20/06:07am 23.9 NNW 4 5 1009.7 - 0.0 - Partly cloudy 10 - - - -
20/06:00am 24.0 WNW 3 4 1009.6 - 0.0 - Cloudy 10 - - - -
20/05:30am 24.0 WSW 5 6 1009.1 - 0.0 - Partly cloudy 9 - - - -
20/05:29am 24.1 WSW 5 7 1009.1 - 0.0 - Partly cloudy 9 - - - -
20/05:00am 24.6 CALM 0 0 1008.8 - 0.0 - Partly cloudy 10 - - - -
20/04:31am 24.5 CALM 0 0 1008.3 - 0.0 - Partly cloudy 10 - - - -
20/04:30am 24.4 CALM 0 0 1008.3 - 0.0 - Partly cloudy 10 - - - -
20/04:00am 24.4 WSW 4 5 1008.1 - 0.0 - Partly cloudy 10 - - - -
20/03:30am 24.4 WSW 4 5 1008.2 - 0.0 - Partly cloudy 10 - - - -
20/03:00am 24.5 W 4 4 1008.2 - 0.0 - Cloudy 10 - - - -
20/02:30am 25.2 SSE 4 5 1008.4 - 0.0 - Cloudy 10 - - - -
20/02:00am 25.1 S 4 5 1008.8 - 0.0 - Cloudy 10 - - - -
20/01:30am 25.2 S 5 6 1008.9 - 0.0 - Cloudy 10 - - - -
20/01:00am 25.4 SSE 6 8 1009.0 - 0.0 - Cloudy 10 - - - -
20/12:30am 25.5 SSE 7 9 1009.5 - 0.0 - Cloudy 10 - - - -
20/12:00am 25.5 SSE 7 10 1009.9 - 0.0 - Mostly cloudy 10 - - - -
 
Date/Time
EST
Temp
°C
Wind Pressure Rain since
9am
mm
Weather Cloud Vis
km
Sea
Height
m
Swell
Dir  Spd
kts
Gust
kts
hPa Trend Height
m
Period
s
Dir
19/11:30pm 25.5 SSE 9 11 1010.2 - 0.0 - Cloudy 10 - - - -
19/11:00pm 25.4 SSE 10 13 1010.3 - 0.0 - Partly cloudy 10 - - - -
19/10:30pm 25.6 SSE 11 15 1010.3 - 0.0 - Cloudy 10 - - - -
19/10:00pm 25.6 SSE 11 15 1010.6 - 0.0 - Partly cloudy 10 - - - -
19/09:30pm 25.5 SSE 10 14 1010.6 - 0.0 - Partly cloudy 10 - - - -
19/09:00pm 25.5 SE 11 15 1010.8 - 0.0 - Partly cloudy 10 - - - -
19/08:30pm 25.9 SSE 9 13 1010.8 - 0.0 - Cloudy 10 - - - -
19/08:00pm 26.1 SSE 9 13 1010.7 - 0.0 - Partly cloudy 10 - - - -
19/07:30pm 26.2 SSE 9 14 1010.6 - 0.0 - Partly cloudy 10 - - - -
19/07:00pm 26.2 SSE 9 13 1010.2 - 0.0 - Partly cloudy 10 - - - -
19/06:30pm 26.4 SSE 11 15 1010.0 - 0.0 - Partly cloudy 10 - - - -
19/06:00pm 26.4 SE 12 16 1009.7 - 0.0 - Mostly clear 10 - - - -
19/05:30pm 27.2 SSE 13 18 1009.4 - 0.0 - Cloudy 10 - - - -
19/05:00pm 27.6 SE 14 19 1009.0 - 0.0 - Partly cloudy 10 - - - -
19/04:30pm 28.6 SE 14 19 1008.7 - 0.0 - Partly cloudy 10 - - - -
19/04:00pm 28.8 SE 16 20 1008.6 - 0.0 - Partly cloudy 10 - - - -
19/03:30pm 29.1 SE 16 21 1008.9 - 0.0 - Partly cloudy 10 - - - -
19/03:00pm 29.0 SE 15 20 1009.3 - 0.0 - Mostly cloudy 10 - - - -
19/02:30pm 29.2 SE 15 20 1009.5 - 0.0 - Cloudy 10 - - - -
19/02:00pm 29.2 SE 17 22 1009.8 - 0.0 - Cloudy 10 - - - -
19/01:30pm 29.3 SE 17 23 1010.0 - 0.0 - Cloudy 10 - - - -
19/01:00pm 29.8 SE 16 23 1010.2 - 0.0 - Partly cloudy 10 - - - -
19/12:30pm 30.9 SE 15 21 1010.3 - 0.0 - Partly cloudy 10 - - - -
19/12:00pm 30.9 SE 16 22 1010.5 - 0.0 - Partly cloudy 10 - - - -

Other Formats:

Comma delimited format used in spreadsheet applications
http://www.bom.gov.au/fwo/IDQ60701/IDQ60701.94569.axf

JavaScript Object Notation format (JSON) in row-major order
http://www.bom.gov.au/fwo/IDQ60701/IDQ60701.94569.json